createdAt,value
2017-11-14T00:01:23.445Z,18.27
2017-11-14T00:03:50.172Z,21.70
2017-11-14T00:06:16.908Z,25.50
2017-11-14T00:08:43.668Z,26.23
2017-11-14T00:11:10.411Z,22.27
2017-11-14T00:13:37.162Z,28.33
2017-11-14T00:16:03.938Z,21.43
2017-11-14T00:18:30.670Z,16.93
2017-11-14T00:20:58.902Z,26.80
2017-11-14T00:23:25.649Z,23.53
2017-11-14T00:25:52.359Z,24.77
2017-11-14T00:28:19.103Z,23.33
2017-11-14T00:30:45.855Z,24.93
2017-11-14T00:33:12.567Z,24.10
2017-11-14T00:35:39.298Z,22.77
2017-11-14T00:38:06.852Z,24.70
2017-11-14T00:40:34.351Z,22.00
2017-11-14T00:43:01.135Z,23.23
2017-11-14T00:45:27.830Z,19.67
2017-11-14T00:47:54.566Z,20.17
2017-11-14T00:50:21.303Z,22.40
2017-11-14T00:52:48.067Z,18.70
2017-11-14T00:55:14.787Z,26.30
2017-11-14T00:57:41.535Z,23.37
2017-11-14T01:00:08.266Z,24.87
2017-11-14T01:02:35.013Z,22.13
2017-11-14T01:05:01.727Z,23.97
2017-11-14T01:07:28.467Z,26.60
2017-11-14T01:09:55.194Z,26.27
2017-11-14T01:12:22.682Z,20.67
2017-11-14T01:14:49.438Z,19.13
2017-11-14T01:17:16.159Z,24.53
2017-11-14T01:19:42.891Z,23.93
2017-11-14T01:22:09.623Z,23.73
2017-11-14T01:24:36.377Z,24.70
2017-11-14T01:27:03.104Z,20.80
2017-11-14T01:29:29.869Z,22.90
2017-11-14T01:31:56.610Z,15.77
2017-11-14T01:34:23.340Z,21.73
2017-11-14T01:36:50.095Z,22.53
2017-11-14T01:39:16.847Z,24.90
2017-11-14T01:41:44.359Z,24.67
2017-11-14T01:44:11.092Z,25.53
2017-11-14T01:46:37.865Z,26.30
2017-11-14T01:49:04.594Z,26.73
2017-11-14T01:51:31.348Z,24.40
2017-11-14T01:53:58.075Z,23.43
2017-11-14T01:56:24.847Z,28.60
2017-11-14T01:58:52.330Z,23.20
2017-11-14T02:01:19.068Z,21.37
2017-11-14T02:03:45.799Z,21.13
2017-11-14T02:06:12.530Z,23.37
2017-11-14T02:08:40.034Z,29.77
2017-11-14T02:11:06.755Z,31.27
2017-11-14T02:13:33.488Z,25.17
2017-11-14T02:16:00.270Z,23.30
2017-11-14T02:18:27.010Z,23.23
2017-11-14T02:20:53.737Z,33.27
2017-11-14T02:23:20.476Z,27.73
2017-11-14T02:25:47.201Z,25.00
2017-11-14T02:28:13.968Z,28.33
2017-11-14T02:30:40.708Z,24.27
2017-11-14T02:33:07.427Z,26.00
2017-11-14T02:35:34.279Z,29.23
2017-11-14T02:38:01.006Z,31.13
2017-11-14T02:40:27.739Z,33.73
2017-11-14T02:42:54.491Z,27.77
2017-11-14T02:45:21.217Z,27.63
2017-11-14T02:47:47.963Z,31.43
2017-11-14T02:50:14.694Z,26.60
2017-11-14T02:52:41.418Z,29.20
2017-11-14T02:55:08.169Z,24.90
2017-11-14T02:57:34.885Z,23.00
2017-11-14T03:00:01.834Z,31.37
2017-11-14T03:02:28.541Z,26.83
2017-11-14T03:04:56.050Z,29.87
2017-11-14T03:07:22.788Z,30.47
2017-11-14T03:09:49.531Z,28.07
2017-11-14T03:12:16.376Z,28.43
2017-11-14T03:14:43.103Z,30.00
2017-11-14T03:17:09.998Z,35.90
2017-11-14T03:19:37.534Z,34.47
2017-11-14T03:22:04.268Z,31.87
2017-11-14T03:24:30.988Z,33.20
2017-11-14T03:26:57.746Z,27.60
2017-11-14T03:29:24.492Z,31.47
2017-11-14T03:31:51.992Z,33.13
2017-11-14T03:34:18.715Z,32.80
2017-11-14T03:36:45.446Z,31.70
2017-11-14T03:39:12.950Z,26.57
2017-11-14T03:41:39.721Z,27.20
2017-11-14T03:44:06.447Z,36.73
2017-11-14T03:46:33.182Z,36.00
2017-11-14T03:48:59.908Z,31.37
2017-11-14T03:51:26.652Z,36.87
2017-11-14T03:53:53.386Z,34.23
2017-11-14T03:56:20.123Z,49.77
2017-11-14T03:58:46.839Z,43.70
2017-11-14T04:01:13.761Z,32.97
2017-11-14T04:03:40.486Z,45.67
2017-11-14T04:06:07.984Z,28.57
2017-11-14T04:08:34.780Z,35.10
2017-11-14T04:11:01.465Z,35.20
2017-11-14T04:13:29.020Z,46.67
2017-11-14T04:15:55.755Z,40.03
2017-11-14T04:18:22.513Z,41.90
2017-11-14T04:20:49.249Z,44.37
2017-11-14T04:23:15.989Z,46.57
2017-11-14T04:25:42.782Z,35.90
2017-11-14T04:28:09.541Z,39.07
2017-11-14T04:30:36.304Z,47.77
2017-11-14T04:33:03.054Z,39.60
2017-11-14T04:35:29.814Z,45.50
2017-11-14T04:37:56.536Z,47.80
2017-11-14T04:40:23.407Z,45.97
2017-11-14T04:42:50.976Z,50.23
2017-11-14T04:45:18.501Z,47.23
2017-11-14T04:47:45.258Z,46.33
2017-11-14T04:50:12.036Z,41.90
2017-11-14T04:52:38.864Z,53.97
2017-11-14T04:55:05.573Z,45.50
2017-11-14T04:57:32.318Z,56.73
2017-11-14T04:59:59.304Z,49.03
2017-11-14T05:02:26.042Z,47.30
2017-11-14T05:04:52.781Z,55.07
2017-11-14T05:07:19.529Z,45.43
2017-11-14T05:09:46.283Z,56.13
2017-11-14T05:12:13.017Z,50.13
2017-11-14T05:14:39.778Z,46.47
2017-11-14T05:17:06.501Z,47.70
2017-11-14T05:19:33.264Z,40.93
2017-11-14T05:21:59.993Z,50.00
2017-11-14T05:24:26.732Z,45.37
2017-11-14T05:26:55.019Z,37.67
2017-11-14T05:29:23.261Z,41.97
2017-11-14T05:31:50.022Z,42.93
2017-11-14T05:34:16.798Z,38.70
2017-11-14T05:36:43.549Z,42.27
2017-11-14T05:39:10.278Z,44.13
2017-11-14T05:41:37.095Z,42.17
2017-11-14T05:44:04.801Z,61.90
2017-11-14T05:46:31.535Z,42.27
2017-11-14T05:48:58.309Z,37.80
2017-11-14T05:51:25.932Z,47.00
2017-11-14T05:53:52.723Z,37.63
2017-11-14T05:56:19.499Z,42.80
2017-11-14T05:58:46.249Z,43.77
2017-11-14T06:01:13.004Z,39.87
2017-11-14T06:03:39.781Z,43.63
2017-11-14T06:06:06.536Z,36.27
2017-11-14T06:08:33.305Z,37.43
2017-11-14T06:11:00.037Z,45.30
2017-11-14T06:13:26.780Z,47.73
2017-11-14T06:15:53.605Z,48.53
2017-11-14T06:18:20.332Z,45.53
2017-11-14T06:20:47.864Z,43.27
2017-11-14T06:23:14.601Z,40.93
2017-11-14T06:25:41.402Z,36.57
2017-11-14T06:28:08.184Z,36.83
2017-11-14T06:30:34.984Z,38.60
2017-11-14T06:33:01.843Z,37.90
2017-11-14T06:35:28.874Z,33.50
2017-11-14T06:37:55.611Z,44.90
2017-11-14T06:40:22.389Z,33.30
2017-11-14T06:42:49.132Z,36.93
2017-11-14T06:45:15.895Z,39.73
2017-11-14T06:47:43.413Z,33.80
2017-11-14T06:50:10.164Z,38.33
2017-11-14T06:52:36.948Z,39.83
2017-11-14T06:55:04.452Z,45.53
2017-11-14T06:57:31.202Z,36.20
2017-11-14T06:59:58.017Z,38.17
2017-11-14T07:02:24.778Z,41.00
2017-11-14T07:04:51.529Z,39.13
2017-11-14T07:07:18.281Z,41.90
2017-11-14T07:09:45.041Z,43.80
2017-11-14T07:12:11.814Z,40.73
2017-11-14T07:14:38.561Z,41.30
2017-11-14T07:17:05.382Z,38.70
2017-11-14T07:19:32.138Z,36.17
2017-11-14T07:21:59.096Z,38.43
2017-11-14T07:24:25.829Z,37.93
2017-11-14T07:26:52.561Z,34.37
2017-11-14T07:29:19.333Z,30.17
2017-11-14T07:31:47.866Z,38.67
2017-11-14T07:34:14.629Z,37.50
2017-11-14T07:36:41.384Z,37.97
2017-11-14T07:39:08.180Z,38.23
2017-11-14T07:41:34.937Z,35.43
2017-11-14T07:44:01.688Z,33.37
2017-11-14T07:46:28.462Z,34.20
2017-11-14T07:48:55.230Z,34.07
2017-11-14T07:51:22.004Z,31.63
2017-11-14T07:53:48.719Z,32.53
2017-11-14T07:56:15.518Z,37.73
2017-11-14T07:58:42.264Z,38.50
2017-11-14T08:01:09.777Z,33.47
2017-11-14T08:03:36.534Z,31.70
2017-11-14T08:06:03.331Z,31.30
2017-11-14T08:08:30.068Z,34.07
2017-11-14T08:10:56.813Z,27.13
2017-11-14T08:13:23.602Z,31.70
2017-11-14T08:15:51.113Z,26.33
2017-11-14T08:18:17.891Z,31.50
2017-11-14T08:20:44.679Z,32.30
2017-11-14T08:23:11.434Z,29.63
2017-11-14T08:25:38.199Z,28.53
2017-11-14T08:28:04.962Z,31.27
2017-11-14T08:30:31.740Z,31.37
2017-11-14T08:32:58.589Z,29.97
2017-11-14T08:35:25.332Z,26.87
2017-11-14T08:37:52.069Z,31.90
2017-11-14T08:40:18.812Z,32.37
2017-11-14T08:42:45.558Z,26.67
2017-11-14T08:45:12.312Z,24.83
2017-11-14T08:47:39.054Z,25.43
2017-11-14T08:50:05.816Z,26.60
2017-11-14T08:52:33.348Z,24.90
2017-11-14T08:55:00.865Z,25.00
2017-11-14T08:57:27.636Z,26.77
2017-11-14T08:59:54.370Z,30.30
2017-11-14T09:02:21.112Z,23.57
2017-11-14T09:04:47.912Z,21.97
2017-11-14T09:07:15.415Z,26.07
2017-11-14T09:09:42.156Z,21.50
2017-11-14T09:12:08.901Z,22.63
2017-11-14T09:14:35.835Z,24.17
2017-11-14T09:17:02.567Z,22.60
2017-11-14T09:19:29.305Z,22.67
2017-11-14T09:21:56.065Z,27.00
2017-11-14T09:24:22.807Z,24.37
2017-11-14T09:26:49.573Z,23.97
2017-11-14T09:29:17.056Z,23.97
2017-11-14T09:31:43.806Z,23.53
2017-11-14T09:34:10.548Z,27.37
2017-11-14T09:36:37.463Z,23.43
2017-11-14T09:39:04.195Z,22.67
2017-11-14T09:41:30.967Z,26.17
2017-11-14T09:43:57.681Z,22.87
2017-11-14T09:46:24.450Z,25.87
2017-11-14T09:48:51.189Z,25.67
2017-11-14T09:51:17.991Z,24.70
2017-11-14T09:53:45.641Z,23.43
2017-11-14T09:56:13.184Z,25.00
2017-11-14T09:58:39.940Z,24.87
2017-11-14T10:01:07.436Z,30.60
2017-11-14T10:03:34.297Z,27.03
2017-11-14T10:06:01.049Z,23.50
2017-11-14T10:08:27.844Z,28.23
2017-11-14T10:10:54.600Z,26.70
2017-11-14T10:13:21.328Z,25.33
2017-11-14T10:15:48.093Z,27.40
2017-11-14T10:18:14.826Z,26.47
2017-11-14T10:20:41.564Z,20.80
2017-11-14T10:23:08.337Z,20.30
2017-11-14T10:25:35.048Z,17.60
2017-11-14T10:28:01.800Z,21.17
2017-11-14T10:30:28.549Z,17.83
2017-11-14T10:32:55.283Z,22.80
2017-11-14T10:35:22.030Z,18.80
2017-11-14T10:37:48.753Z,19.57
2017-11-14T10:40:15.505Z,20.97
2017-11-14T10:42:42.257Z,19.13
2017-11-14T10:45:09.777Z,20.63
2017-11-14T10:47:36.514Z,16.27
2017-11-14T10:50:03.266Z,21.40
2017-11-14T10:52:30.002Z,26.83
2017-11-14T10:54:56.804Z,23.20
2017-11-14T10:57:23.526Z,19.20
2017-11-14T10:59:50.412Z,15.50
2017-11-14T11:02:17.194Z,20.30
2017-11-14T11:04:44.701Z,19.43
2017-11-14T11:07:11.462Z,20.17
2017-11-14T11:09:38.190Z,19.17
2017-11-14T11:12:04.949Z,20.90
2017-11-14T11:14:31.694Z,22.50
2017-11-14T11:16:59.210Z,23.60
2017-11-14T11:19:25.962Z,17.63
2017-11-14T11:21:52.686Z,21.90
2017-11-14T11:24:19.448Z,17.10
2017-11-14T11:26:46.361Z,23.63
2017-11-14T11:29:13.133Z,17.03
2017-11-14T11:31:41.371Z,17.57
2017-11-14T11:34:08.156Z,23.70
2017-11-14T11:36:34.879Z,15.60
2017-11-14T11:39:01.600Z,15.37
2017-11-14T11:41:28.370Z,15.43
2017-11-14T11:43:55.100Z,21.13
2017-11-14T11:46:21.862Z,14.87
2017-11-14T11:48:48.573Z,16.03
2017-11-14T11:51:15.463Z,19.97
2017-11-14T11:53:43.126Z,16.47
2017-11-14T11:56:09.863Z,18.23
2017-11-14T11:58:37.357Z,20.77
2017-11-14T12:01:04.101Z,15.20
2017-11-14T12:03:30.835Z,15.00
2017-11-14T12:05:57.563Z,15.70
2017-11-14T12:08:24.317Z,22.00
2017-11-14T12:10:51.061Z,17.87
2017-11-14T12:13:17.841Z,20.47
2017-11-14T12:15:44.544Z,19.47
2017-11-14T12:18:11.294Z,17.70
2017-11-14T12:20:38.017Z,18.07
2017-11-14T12:23:04.777Z,18.17
2017-11-14T12:25:31.494Z,20.13
2017-11-14T12:27:58.254Z,17.60
2017-11-14T12:30:24.961Z,18.23
2017-11-14T12:32:51.772Z,21.37
2017-11-14T12:35:18.607Z,18.43
2017-11-14T12:37:46.113Z,17.27
2017-11-14T12:40:12.849Z,18.47
2017-11-14T12:42:39.589Z,21.13
2017-11-14T12:45:06.357Z,20.77
2017-11-14T12:47:33.077Z,19.20
2017-11-14T12:49:59.835Z,18.10
2017-11-14T12:52:26.579Z,17.57
2017-11-14T12:54:53.309Z,16.37
2017-11-14T12:57:20.854Z,18.27
2017-11-14T12:59:47.732Z,16.83
2017-11-14T13:02:14.427Z,15.83
2017-11-14T13:04:41.188Z,17.90
2017-11-14T13:07:08.722Z,17.60
2017-11-14T13:09:35.454Z,20.80
2017-11-14T13:12:02.207Z,16.27
2017-11-14T13:14:28.928Z,14.73
2017-11-14T13:16:55.694Z,17.80
2017-11-14T13:19:22.409Z,16.23
2017-11-14T13:21:49.170Z,18.00
2017-11-14T13:24:15.895Z,15.70
2017-11-14T13:26:42.629Z,15.30
2017-11-14T13:29:09.404Z,18.73
2017-11-14T13:31:36.221Z,18.60
2017-11-14T13:34:03.327Z,13.03
2017-11-14T13:36:30.064Z,19.13
2017-11-14T13:38:57.033Z,20.37
2017-11-14T13:41:23.777Z,16.80
2017-11-14T13:43:50.565Z,16.60
2017-11-14T13:46:17.277Z,14.00
2017-11-14T13:48:44.004Z,17.60
2017-11-14T13:51:10.753Z,15.60
2017-11-14T13:53:37.498Z,18.50
2017-11-14T13:56:05.029Z,15.53
2017-11-14T13:58:31.754Z,18.33
2017-11-14T14:00:58.509Z,14.90
2017-11-14T14:03:25.272Z,13.07
2017-11-14T14:05:52.034Z,16.10
2017-11-14T14:08:18.743Z,20.47
2017-11-14T14:10:45.468Z,17.13
2017-11-14T14:13:12.228Z,15.00
2017-11-14T14:15:39.178Z,14.57
2017-11-14T14:18:06.716Z,16.77
2017-11-14T14:20:33.461Z,17.73
2017-11-14T14:23:00.577Z,14.43
2017-11-14T14:25:27.311Z,15.37
2017-11-14T14:27:54.217Z,15.47
2017-11-14T14:30:21.753Z,13.33
2017-11-14T14:32:49.342Z,17.10
2017-11-14T14:35:16.902Z,14.87
2017-11-14T14:37:43.740Z,12.93
2017-11-14T14:40:11.229Z,11.07
2017-11-14T14:42:38.036Z,16.83
2017-11-14T14:45:05.596Z,16.73
2017-11-14T14:47:33.145Z,14.20
2017-11-14T14:50:00.621Z,18.30
2017-11-14T14:52:27.390Z,20.13
2017-11-14T14:54:54.184Z,13.13
2017-11-14T14:57:22.666Z,15.03
2017-11-14T14:59:49.392Z,15.57
2017-11-14T15:02:16.905Z,13.37
2017-11-14T15:04:43.652Z,17.40
2017-11-14T15:07:10.390Z,14.50
2017-11-14T15:09:37.148Z,16.10
2017-11-14T15:12:03.878Z,15.87
2017-11-14T15:14:30.634Z,14.60
2017-11-14T15:16:58.149Z,16.23
2017-11-14T15:19:24.882Z,16.53
2017-11-14T15:21:51.655Z,14.20
2017-11-14T15:24:19.171Z,17.50
2017-11-14T15:26:45.935Z,13.87
2017-11-14T15:29:12.672Z,15.93
2017-11-14T15:31:39.434Z,15.13
2017-11-14T15:34:06.319Z,17.20
2017-11-14T15:36:33.797Z,19.37
2017-11-14T15:39:00.561Z,18.27
2017-11-14T15:41:27.302Z,20.47
2017-11-14T15:43:54.057Z,15.33
2017-11-14T15:46:20.795Z,14.97
2017-11-14T15:48:48.301Z,16.23
2017-11-14T15:51:15.031Z,15.53
2017-11-14T15:53:41.783Z,15.87
2017-11-14T15:56:08.529Z,20.73
2017-11-14T15:58:35.277Z,15.93
2017-11-14T16:01:02.006Z,12.77
2017-11-14T16:03:28.758Z,18.03
2017-11-14T16:05:55.525Z,18.23
2017-11-14T16:08:22.251Z,15.90
2017-11-14T16:10:49.057Z,13.33
2017-11-14T16:13:15.801Z,23.60
2017-11-14T16:15:42.559Z,18.03
2017-11-14T16:18:09.279Z,17.47
2017-11-14T16:20:36.069Z,18.60
2017-11-14T16:23:02.793Z,18.50
2017-11-14T16:25:30.307Z,17.43
2017-11-14T16:27:57.052Z,15.57
2017-11-14T16:30:23.800Z,14.77
2017-11-14T16:32:50.525Z,15.10
2017-11-14T16:35:17.332Z,14.10
2017-11-14T16:37:44.086Z,16.40
2017-11-14T16:40:10.829Z,17.67
2017-11-14T16:42:37.585Z,15.03
2017-11-14T16:45:04.325Z,18.20
2017-11-14T16:47:31.069Z,17.70
2017-11-14T16:49:57.830Z,15.63
2017-11-14T16:52:24.577Z,17.10
2017-11-14T16:54:51.348Z,20.93
2017-11-14T16:57:18.999Z,17.03
2017-11-14T16:59:46.666Z,16.63
2017-11-14T17:02:14.176Z,17.37
2017-11-14T17:04:40.910Z,16.00
2017-11-14T17:07:07.649Z,16.70
2017-11-14T17:09:34.399Z,14.90
2017-11-14T17:12:01.120Z,14.80
2017-11-14T17:14:27.895Z,17.83
2017-11-14T17:16:54.638Z,24.17
2017-11-14T17:19:22.131Z,18.27
2017-11-14T17:21:48.918Z,24.40
2017-11-14T17:24:15.655Z,21.90
2017-11-14T17:26:42.421Z,19.53
2017-11-14T17:29:09.934Z,17.50
2017-11-14T17:31:36.655Z,19.10
2017-11-14T17:34:03.416Z,19.07
2017-11-14T17:36:30.140Z,20.23
2017-11-14T17:38:56.907Z,18.10
2017-11-14T17:41:23.640Z,19.77
2017-11-14T17:43:50.421Z,22.37
2017-11-14T17:46:17.940Z,19.80
2017-11-14T17:48:44.688Z,17.70
2017-11-14T17:51:11.452Z,18.10
2017-11-14T17:53:38.978Z,18.80
2017-11-14T17:56:05.724Z,18.70
2017-11-14T17:58:32.468Z,15.93
2017-11-14T18:00:59.989Z,17.10
2017-11-14T18:03:26.746Z,21.80
2017-11-14T18:05:53.526Z,19.83
2017-11-14T18:08:21.010Z,19.30
2017-11-14T18:10:47.754Z,18.67
2017-11-14T18:13:14.529Z,18.07
2017-11-14T18:15:42.050Z,18.43
2017-11-14T18:18:08.806Z,22.77
2017-11-14T18:20:35.535Z,21.03
2017-11-14T18:23:02.314Z,19.47
2017-11-14T18:25:29.037Z,20.53
2017-11-14T18:27:57.357Z,23.03
2017-11-14T19:59:51.902Z,20.50
2017-11-14T20:02:19.513Z,23.33
2017-11-14T20:04:46.286Z,23.50
2017-11-14T20:07:13.810Z,22.77
2017-11-14T20:09:40.555Z,19.50
2017-11-14T20:12:07.307Z,18.07
2017-11-14T20:14:34.820Z,19.20
2017-11-14T20:17:01.575Z,18.27
2017-11-14T20:19:28.334Z,23.03
2017-11-14T20:21:55.863Z,22.33
2017-11-14T20:24:22.592Z,19.77
2017-11-14T20:26:49.403Z,22.47
2017-11-14T20:29:16.912Z,17.77
2017-11-14T20:31:44.582Z,21.73
2017-11-14T20:34:11.330Z,22.43
2017-11-14T20:36:38.060Z,24.73
2017-11-14T20:39:05.620Z,25.50
2017-11-14T20:41:32.366Z,25.03
2017-11-14T20:43:59.946Z,25.83
2017-11-14T20:46:26.655Z,21.67
2017-11-14T20:48:53.396Z,21.00
2017-11-14T20:51:20.165Z,24.90
2017-11-14T20:53:47.666Z,22.73
2017-11-14T20:56:14.458Z,24.17
2017-11-14T20:58:41.979Z,20.37
2017-11-14T21:01:08.695Z,24.47
2017-11-14T21:03:35.456Z,20.30
2017-11-14T21:06:02.168Z,24.17
2017-11-14T21:08:28.918Z,24.83
2017-11-14T21:10:55.688Z,21.27
2017-11-14T21:13:23.214Z,25.40
2017-11-14T21:15:49.937Z,19.27
2017-11-14T21:18:16.717Z,22.03
2017-11-14T21:20:43.442Z,28.73
2017-11-14T21:23:10.214Z,24.07
2017-11-14T21:25:37.722Z,23.87
2017-11-14T21:28:04.477Z,22.20
2017-11-14T21:30:31.195Z,28.83
2017-11-14T21:32:57.928Z,26.20
2017-11-14T21:35:24.716Z,26.20
2017-11-14T21:37:52.217Z,25.40
2017-11-14T21:40:18.931Z,31.40
2017-11-14T21:42:45.727Z,28.57
2017-11-14T21:45:12.477Z,31.90
2017-11-14T21:47:39.208Z,27.63
2017-11-14T21:50:07.464Z,30.30
2017-11-14T21:52:34.272Z,33.50
2017-11-14T21:55:01.006Z,34.97
2017-11-14T21:57:28.500Z,32.70
2017-11-14T21:59:55.216Z,39.07
2017-11-14T22:02:22.006Z,31.17
2017-11-14T22:04:48.745Z,43.43
2017-11-14T22:07:17.049Z,36.80
2017-11-14T22:09:43.803Z,34.47
2017-11-14T22:12:10.539Z,37.30
2017-11-14T22:14:37.304Z,38.87
2017-11-14T22:17:04.121Z,43.40
2017-11-14T22:19:30.877Z,38.23
2017-11-14T22:21:57.602Z,38.47
2017-11-14T22:24:24.368Z,36.37
2017-11-14T22:26:51.086Z,40.77
2017-11-14T22:29:17.844Z,39.83
2017-11-14T22:31:44.624Z,48.33
2017-11-14T22:34:12.149Z,37.13
2017-11-14T22:36:39.007Z,43.33
2017-11-14T22:39:06.501Z,42.27
2017-11-14T22:41:33.246Z,41.93
2017-11-14T22:43:59.997Z,37.13
2017-11-14T22:46:26.767Z,44.80
2017-11-14T22:48:53.610Z,38.43
2017-11-14T22:51:20.338Z,43.53
2017-11-14T22:53:47.159Z,45.67
2017-11-14T22:56:13.867Z,40.47
2017-11-14T22:58:40.634Z,44.80
2017-11-14T23:01:07.359Z,44.10
2017-11-14T23:03:34.096Z,39.17
2017-11-14T23:06:00.860Z,40.00
2017-11-14T23:08:27.565Z,44.87
2017-11-14T23:10:54.306Z,42.57
2017-11-14T23:13:21.017Z,41.33
2017-11-14T23:15:48.529Z,43.60
2017-11-14T23:18:15.332Z,41.37
2017-11-14T23:20:42.829Z,41.57
2017-11-14T23:23:09.542Z,45.40
2017-11-14T23:25:36.289Z,44.43
2017-11-14T23:28:03.008Z,42.27
2017-11-14T23:30:29.730Z,46.03
2017-11-14T23:32:56.485Z,38.53
2017-11-14T23:35:23.988Z,38.40
2017-11-14T23:37:50.705Z,43.27
2017-11-14T23:40:17.472Z,37.57
2017-11-14T23:42:44.220Z,39.60
2017-11-14T23:45:10.950Z,42.50
2017-11-14T23:47:37.685Z,32.90
2017-11-14T23:50:04.430Z,43.20
2017-11-14T23:52:31.146Z,35.87
2017-11-14T23:54:57.891Z,37.10
2017-11-14T23:57:24.708Z,37.03
2017-11-14T23:59:51.453Z,35.97
